Time;durP1;ratioP1;P1;durP2;ratioP2;P2;SDS_P1;SDS_P2;PMS_P1;PMS_P2;Temp;Humidity;BMP_temperature;BMP_pressure;BME280_temperature;BME280_humidity;BME280_pressure;Samples;Min_cycle;Max_cycle;Signal;HPM_P1;HPM_P2
2021/09/09 00:01:29;;;;;;;30.27;13.70;;;;;;;;;;4954149;29;20440;-74
2021/09/09 00:03:55;;;;;;;29.02;14.20;;;;;;;;;;4953734;29;20116;-73
2021/09/09 00:06:21;;;;;;;20.70;12.73;;;;;;;;;;4953818;29;20054;-74
2021/09/09 00:08:47;;;;;;;34.70;14.77;;;;;;;;;;4952408;29;20043;-73
2021/09/09 00:11:13;;;;;;;25.63;13.20;;;;;;;;;;4952106;29;20123;-73
2021/09/09 00:13:39;;;;;;;22.33;13.20;;;;;;;;;;4953573;29;20035;-73
2021/09/09 00:16:05;;;;;;;32.45;14.25;;;;;;;;;;4953387;29;20261;-73
2021/09/09 00:18:32;;;;;;;34.33;13.60;;;;;;;;;;4953421;29;20398;-72
2021/09/09 00:20:57;;;;;;;33.10;14.93;;;;;;;;;;4952097;29;20031;-73
2021/09/09 00:23:23;;;;;;;31.88;13.80;;;;;;;;;;4952254;29;20472;-73
2021/09/09 00:25:49;;;;;;;31.30;13.88;;;;;;;;;;4951929;29;20152;-73
2021/09/09 00:28:14;;;;;;;24.15;13.23;;;;;;;;;;4952185;29;20031;-73
2021/09/09 00:30:40;;;;;;;30.60;12.70;;;;;;;;;;4971873;28;20054;-72
2021/09/09 00:33:08;;;;;;;26.13;14.48;;;;;;;;;;4972435;28;20065;-71
2021/09/09 00:35:37;;;;;;;29.08;13.52;;;;;;;;;;4954903;28;20041;-73
2021/09/09 00:38:02;;;;;;;27.33;13.00;;;;;;;;;;4972349;28;20037;-73
2021/09/09 00:40:29;;;;;;;32.60;14.15;;;;;;;;;;4972583;28;20022;-73
2021/09/09 00:42:55;;;;;;;29.55;13.52;;;;;;;;;;4972117;28;20108;-74
2021/09/09 00:45:20;;;;;;;30.90;13.45;;;;;;;;;;4971657;28;20039;-73
2021/09/09 00:47:45;;;;;;;28.20;15.13;;;;;;;;;;4972365;28;20467;-72
2021/09/09 00:50:12;;;;;;;33.28;14.23;;;;;;;;;;4972530;28;20035;-73
2021/09/09 00:52:40;;;;;;;32.28;15.05;;;;;;;;;;4973228;28;20073;-73
2021/09/09 00:55:06;;;;;;;29.50;13.98;;;;;;;;;;4955058;28;20035;-73
2021/09/09 00:57:32;;;;;;;32.15;14.65;;;;;;;;;;4972487;28;20498;-73
2021/09/09 00:59:58;;;;;;;33.28;15.13;;;;;;;;;;4972419;28;20023;-74
2021/09/09 01:02:24;;;;;;;27.95;14.27;;;;;;;;;;4954367;28;20089;-72
2021/09/09 01:04:49;;;;;;;28.77;14.95;;;;;;;;;;4972248;28;20034;-72
2021/09/09 01:07:15;;;;;;;37.40;15.13;;;;;;;;;;4954232;28;20034;-74
2021/09/09 01:09:42;;;;;;;31.48;15.50;;;;;;;;;;4971922;28;20030;-73
2021/09/09 01:12:08;;;;;;;30.25;14.65;;;;;;;;;;4971780;28;20038;-73
2021/09/09 01:14:33;;;;;;;32.28;14.75;;;;;;;;;;4971908;28;20035;-73
2021/09/09 01:16:59;;;;;;;29.58;14.45;;;;;;;;;;4954401;28;20049;-73
2021/09/09 01:19:24;;;;;;;32.97;15.43;;;;;;;;;;4970561;28;20512;-73
2021/09/09 01:21:50;;;;;;;33.75;16.85;;;;;;;;;;4972017;28;20030;-73
2021/09/09 01:24:20;;;;;;;32.92;16.90;;;;;;;;;;4971593;28;20034;-73
2021/09/09 01:26:47;;;;;;;37.15;15.65;;;;;;;;;;4971952;28;20487;-73
2021/09/09 01:29:13;;;;;;;32.30;15.30;;;;;;;;;;4971291;28;20054;-73
2021/09/09 01:31:38;;;;;;;28.30;14.93;;;;;;;;;;4971757;28;20115;-74
2021/09/09 01:34:04;;;;;;;34.85;15.70;;;;;;;;;;4971939;28;20107;-72
2021/09/09 01:36:29;;;;;;;34.03;15.75;;;;;;;;;;4954333;28;20054;-74
2021/09/09 01:38:55;;;;;;;31.67;15.48;;;;;;;;;;4971626;28;20523;-73
2021/09/09 01:41:20;;;;;;;36.95;15.13;;;;;;;;;;4971241;28;20027;-73
2021/09/09 01:43:45;;;;;;;37.55;17.42;;;;;;;;;;4970530;28;20123;-73
2021/09/09 01:46:11;;;;;;;30.92;15.38;;;;;;;;;;4971659;28;20391;-73
2021/09/09 01:48:37;;;;;;;31.15;14.98;;;;;;;;;;4954202;28;20030;-73
2021/09/09 01:51:02;;;;;;;40.25;15.07;;;;;;;;;;4971372;28;20031;-73
2021/09/09 01:53:28;;;;;;;41.00;15.77;;;;;;;;;;4971671;28;20034;-72
2021/09/09 01:55:53;;;;;;;35.97;15.45;;;;;;;;;;4970695;28;20468;-73
2021/09/09 01:58:18;;;;;;;29.83;15.10;;;;;;;;;;4971165;28;20073;-74
2021/09/09 02:00:44;;;;;;;31.75;14.32;;;;;;;;;;4971342;28;20027;-73
2021/09/09 02:03:09;;;;;;;55.05;19.67;;;;;;;;;;4974660;28;20494;-73
2021/09/09 02:05:35;;;;;;;34.15;16.42;;;;;;;;;;4975597;28;20368;-73
2021/09/09 02:08:00;;;;;;;31.60;15.35;;;;;;;;;;4975193;28;20066;-73
2021/09/09 02:10:26;;;;;;;32.55;13.77;;;;;;;;;;4957774;28;20061;-73
2021/09/09 02:12:51;;;;;;;33.28;13.82;;;;;;;;;;4975336;28;20030;-73
2021/09/09 02:15:17;;;;;;;32.38;13.50;;;;;;;;;;4957573;28;20488;-73
2021/09/09 02:17:43;;;;;;;34.88;19.55;;;;;;;;;;4974897;28;20537;-73
2021/09/09 02:20:09;;;;;;;31.10;14.73;;;;;;;;;;4975011;28;20383;-74
2021/09/09 02:22:35;;;;;;;30.80;15.77;;;;;;;;;;4975206;28;20030;-75
2021/09/09 02:25:01;;;;;;;39.65;14.30;;;;;;;;;;4974791;28;20027;-72
2021/09/09 02:27:27;;;;;;;28.98;15.88;;;;;;;;;;4975134;28;20026;-75
2021/09/09 02:29:53;;;;;;;28.15;13.10;;;;;;;;;;4954212;29;20085;-73
2021/09/09 02:32:19;;;;;;;30.65;14.85;;;;;;;;;;4953888;29;20035;-73
2021/09/09 02:34:44;;;;;;;40.15;15.18;;;;;;;;;;4955612;29;20034;-73
2021/09/09 02:37:10;;;;;;;27.95;14.68;;;;;;;;;;4955338;29;20034;-74
2021/09/09 02:39:36;;;;;;;26.17;13.98;;;;;;;;;;4955637;29;20480;-73
2021/09/09 02:42:03;;;;;;;30.05;14.70;;;;;;;;;;4953901;29;20027;-73
2021/09/09 02:44:28;;;;;;;31.17;14.77;;;;;;;;;;4954118;29;20028;-74
2021/09/09 02:46:54;;;;;;;30.92;14.10;;;;;;;;;;4953851;29;20086;-73
2021/09/09 02:49:19;;;;;;;35.60;14.15;;;;;;;;;;4955301;29;20043;-73
2021/09/09 02:51:45;;;;;;;33.17;14.05;;;;;;;;;;4955246;29;20526;-72
2021/09/09 02:54:10;;;;;;;29.65;13.43;;;;;;;;;;4955091;29;20034;-73
2021/09/09 02:56:36;;;;;;;31.67;13.52;;;;;;;;;;4955405;29;20042;-73
2021/09/09 02:59:01;;;;;;;23.60;13.50;;;;;;;;;;4955322;29;20027;-73
2021/09/09 03:01:28;;;;;;;27.27;13.90;;;;;;;;;;4953909;29;20019;-73
2021/09/09 03:03:54;;;;;;;38.63;15.47;;;;;;;;;;4955424;29;20065;-73
2021/09/09 03:06:19;;;;;;;29.35;13.45;;;;;;;;;;4954955;29;20419;-73
2021/09/09 03:08:45;;;;;;;29.50;13.93;;;;;;;;;;4937322;29;20027;-73
2021/09/09 03:11:10;;;;;;;42.03;14.38;;;;;;;;;;4953317;29;20043;-74
2021/09/09 03:13:36;;;;;;;26.40;14.57;;;;;;;;;;4954983;28;20085;-74
2021/09/09 03:16:01;;;;;;;27.17;12.95;;;;;;;;;;4953520;29;20019;-72
2021/09/09 03:18:27;;;;;;;34.03;15.13;;;;;;;;;;4954314;29;20030;-73
2021/09/09 03:20:52;;;;;;;38.23;14.57;;;;;;;;;;4954993;29;20023;-72
2021/09/09 03:23:19;;;;;;;27.25;13.38;;;;;;;;;;4954721;29;20534;-72
2021/09/09 03:25:44;;;;;;;27.90;12.85;;;;;;;;;;4954687;29;20480;-72
2021/09/09 03:28:10;;;;;;;34.30;13.32;;;;;;;;;;4954722;29;20050;-73
2021/09/09 03:30:35;;;;;;;28.60;13.75;;;;;;;;;;4952970;29;20043;-73
2021/09/09 03:33:01;;;;;;;34.97;14.10;;;;;;;;;;4954698;29;20110;-73
2021/09/09 03:35:28;;;;;;;36.70;16.08;;;;;;;;;;4954277;29;20138;-73
2021/09/09 03:37:53;;;;;;;37.78;14.70;;;;;;;;;;4953433;29;20157;-73
2021/09/09 03:40:19;;;;;;;31.40;14.95;;;;;;;;;;4954491;29;20079;-73
2021/09/09 03:42:44;;;;;;;36.33;14.80;;;;;;;;;;4954481;29;20464;-73
2021/09/09 03:45:10;;;;;;;36.00;15.90;;;;;;;;;;4954135;29;20035;-73
2021/09/09 03:47:36;;;;;;;34.95;17.00;;;;;;;;;;4954285;29;20065;-73
2021/09/09 03:50:02;;;;;;;48.42;16.48;;;;;;;;;;4954353;29;20031;-73
2021/09/09 03:52:27;;;;;;;46.15;18.20;;;;;;;;;;4952715;29;20428;-73
2021/09/09 03:54:53;;;;;;;27.80;14.50;;;;;;;;;;4954096;29;20031;-73
2021/09/09 03:57:18;;;;;;;47.33;16.47;;;;;;;;;;4954103;29;20038;-73
2021/09/09 03:59:44;;;;;;;37.58;16.52;;;;;;;;;;4953883;29;20035;-73
2021/09/09 04:02:09;;;;;;;52.92;23.65;;;;;;;;;;4954056;29;20050;-73
2021/09/09 04:04:34;;;;;;;34.60;15.33;;;;;;;;;;4953843;29;20232;-73
2021/09/09 04:07:00;;;;;;;38.08;15.52;;;;;;;;;;4953940;29;20043;-73
2021/09/09 04:09:26;;;;;;;37.43;16.80;;;;;;;;;;4952278;29;20042;-73
2021/09/09 04:11:51;;;;;;;35.95;15.93;;;;;;;;;;4953946;29;20030;-74
2021/09/09 04:14:17;;;;;;;35.63;16.73;;;;;;;;;;4954048;29;20435;-73
2021/09/09 04:16:43;;;;;;;51.93;16.20;;;;;;;;;;4954337;29;20024;-73
2021/09/09 04:19:09;;;;;;;43.37;18.07;;;;;;;;;;4953082;29;20089;-73
2021/09/09 04:21:34;;;;;;;32.80;15.87;;;;;;;;;;4954901;29;20027;-73
2021/09/09 04:23:59;;;;;;;37.20;16.30;;;;;;;;;;4953468;28;20113;-72
2021/09/09 04:26:25;;;;;;;32.33;15.88;;;;;;;;;;4954672;29;20133;-73
2021/09/09 04:28:51;;;;;;;39.50;17.50;;;;;;;;;;4958120;28;20055;-73
2021/09/09 04:31:16;;;;;;;30.10;16.03;;;;;;;;;;4955515;28;20038;-73
2021/09/09 04:33:42;;;;;;;43.73;17.20;;;;;;;;;;4972993;28;20102;-72
2021/09/09 04:36:07;;;;;;;41.03;18.27;;;;;;;;;;4955370;28;20524;-72
2021/09/09 04:38:33;;;;;;;41.43;17.40;;;;;;;;;;4973002;28;20035;-73
2021/09/09 04:40:59;;;;;;;49.20;20.80;;;;;;;;;;4955164;28;20731;-73
2021/09/09 04:43:24;;;;;;;34.23;20.37;;;;;;;;;;4971109;28;20060;-74
2021/09/09 04:45:50;;;;;;;42.23;17.03;;;;;;;;;;4955006;28;20110;-73
2021/09/09 04:48:16;;;;;;;38.53;17.00;;;;;;;;;;4972239;28;20118;-73
2021/09/09 04:50:41;;;;;;;48.13;18.37;;;;;;;;;;4972348;28;20113;-73
2021/09/09 04:53:07;;;;;;;33.87;16.80;;;;;;;;;;4955179;28;20061;-73
2021/09/09 04:55:32;;;;;;;35.73;17.57;;;;;;;;;;4954793;28;20037;-72
2021/09/09 04:57:58;;;;;;;38.70;17.23;;;;;;;;;;4972060;28;20031;-74
2021/09/09 05:00:23;;;;;;;32.20;17.07;;;;;;;;;;4954708;28;20080;-73
2021/09/09 05:02:49;;;;;;;49.27;17.53;;;;;;;;;;4972179;28;20027;-73
2021/09/09 05:05:16;;;;;;;39.07;18.37;;;;;;;;;;4972261;28;20487;-75
2021/09/09 05:07:41;;;;;;;46.07;19.07;;;;;;;;;;4954448;28;20077;-72
2021/09/09 05:10:08;;;;;;;51.37;18.03;;;;;;;;;;4971924;28;20427;-74
2021/09/09 05:12:33;;;;;;;37.93;18.30;;;;;;;;;;4954526;28;20045;-74
2021/09/09 05:14:59;;;;;;;40.03;17.30;;;;;;;;;;4971879;28;20039;-73
2021/09/09 05:17:25;;;;;;;42.57;18.93;;;;;;;;;;4972137;28;20037;-73
2021/09/09 05:19:50;;;;;;;39.90;16.23;;;;;;;;;;4972036;28;20391;-73
2021/09/09 05:22:16;;;;;;;39.87;16.47;;;;;;;;;;4971809;28;20434;-71
2021/09/09 05:24:43;;;;;;;39.47;19.70;;;;;;;;;;4971919;28;20031;-72
2021/09/09 05:27:09;;;;;;;32.00;15.67;;;;;;;;;;4954541;28;20034;-73
2021/09/09 05:29:35;;;;;;;30.55;17.05;;;;;;;;;;4967080;28;20058;-74
2021/09/09 05:32:00;;;;;;;35.80;17.42;;;;;;;;;;4951030;29;20035;-72
2021/09/09 05:34:26;;;;;;;32.03;15.37;;;;;;;;;;4952036;29;20038;-73
2021/09/09 05:36:52;;;;;;;31.95;16.08;;;;;;;;;;4951398;28;20039;-74
2021/09/09 05:39:17;;;;;;;40.83;15.98;;;;;;;;;;4966632;28;20031;-73
2021/09/09 05:41:43;;;;;;;43.65;17.40;;;;;;;;;;4950786;29;20078;-73
2021/09/09 05:44:08;;;;;;;40.07;18.93;;;;;;;;;;4952230;29;20456;-73
2021/09/09 05:46:34;;;;;;;48.08;17.13;;;;;;;;;;4970813;28;20045;-73
2021/09/09 05:48:59;;;;;;;40.45;21.10;;;;;;;;;;4950731;29;20036;-72
2021/09/09 05:51:25;;;;;;;32.47;17.23;;;;;;;;;;4970166;28;20118;-72
2021/09/09 05:53:50;;;;;;;35.45;17.63;;;;;;;;;;4967809;28;20061;-74
2021/09/09 05:56:16;;;;;;;32.58;17.38;;;;;;;;;;4946886;28;20057;-73
2021/09/09 05:58:41;;;;;;;41.58;16.48;;;;;;;;;;4939993;28;20053;-72
2021/09/09 06:01:07;;;;;;;34.47;16.60;;;;;;;;;;4951616;28;20131;-73
2021/09/09 06:03:35;;;;;;;35.47;17.95;;;;;;;;;;4965981;28;20479;-72
2021/09/09 06:06:04;;;;;;;37.30;18.13;;;;;;;;;;4970184;28;20077;-73
2021/09/09 06:08:35;;;;;;;41.38;17.67;;;;;;;;;;4970379;28;20038;-73
2021/09/09 06:11:01;;;;;;;30.50;16.23;;;;;;;;;;4970542;28;20028;-73
2021/09/09 06:13:27;;;;;;;43.80;18.42;;;;;;;;;;4963587;28;20078;-73
2021/09/09 06:15:53;;;;;;;41.65;16.77;;;;;;;;;;4950094;28;20118;-73
2021/09/09 06:18:19;;;;;;;39.03;17.60;;;;;;;;;;4966186;28;20284;-74
2021/09/09 06:20:45;;;;;;;32.17;16.98;;;;;;;;;;4920492;28;20032;-74
2021/09/09 06:23:11;;;;;;;36.03;16.55;;;;;;;;;;4963023;28;20033;-73
2021/09/09 06:25:37;;;;;;;38.08;18.38;;;;;;;;;;4966598;28;20037;-73
2021/09/09 06:28:04;;;;;;;39.28;17.65;;;;;;;;;;4930414;28;20059;-74
2021/09/09 06:30:30;;;;;;;36.67;16.70;;;;;;;;;;4966608;28;20047;-73
2021/09/09 06:32:56;;;;;;;33.38;16.15;;;;;;;;;;4964390;28;20085;-72
2021/09/09 06:35:22;;;;;;;33.60;16.45;;;;;;;;;;4964546;28;20038;-72
2021/09/09 06:37:48;;;;;;;41.00;15.77;;;;;;;;;;4932382;29;20322;-73
2021/09/09 06:40:14;;;;;;;48.83;17.42;;;;;;;;;;4965273;28;20513;-73
2021/09/09 06:42:40;;;;;;;39.85;15.95;;;;;;;;;;4954715;28;20046;-74
2021/09/09 06:45:07;;;;;;;35.40;16.38;;;;;;;;;;4974322;28;20031;-73
2021/09/09 06:47:33;;;;;;;41.40;15.82;;;;;;;;;;4970045;28;20042;-74
2021/09/09 06:49:58;;;;;;;53.95;16.52;;;;;;;;;;4951251;28;20078;-74
2021/09/09 06:52:24;;;;;;;31.65;15.10;;;;;;;;;;4931345;28;20437;-74
2021/09/09 06:54:50;;;;;;;38.80;16.00;;;;;;;;;;4964483;28;20463;-72
2021/09/09 06:57:16;;;;;;;30.33;16.65;;;;;;;;;;4970206;28;20085;-73
2021/09/09 06:59:42;;;;;;;28.42;15.02;;;;;;;;;;4949504;28;20540;-73
2021/09/09 07:02:07;;;;;;;28.92;13.88;;;;;;;;;;4959790;28;20467;-73
2021/09/09 07:04:33;;;;;;;39.72;14.27;;;;;;;;;;4948483;28;20042;-74
2021/09/09 07:06:58;;;;;;;28.30;13.50;;;;;;;;;;4971237;28;20523;-74
2021/09/09 07:09:24;;;;;;;34.20;12.93;;;;;;;;;;4952556;28;20058;-73
2021/09/09 07:11:50;;;;;;;31.25;13.48;;;;;;;;;;4967045;28;20027;-72
2021/09/09 07:14:15;;;;;;;30.55;13.05;;;;;;;;;;4948022;29;20499;-73
2021/09/09 07:16:44;;;;;;;31.27;12.43;;;;;;;;;;4962514;28;20030;-73
2021/09/09 07:19:09;;;;;;;33.13;13.82;;;;;;;;;;4940681;28;20089;-73
2021/09/09 07:21:35;;;;;;;26.65;13.40;;;;;;;;;;4944538;28;20027;-74
2021/09/09 07:24:00;;;;;;;25.52;10.20;;;;;;;;;;4964861;28;20026;-76
2021/09/09 07:26:26;;;;;;;31.40;12.52;;;;;;;;;;4968552;28;20117;-74
2021/09/09 07:28:51;;;;;;;30.00;12.63;;;;;;;;;;4947050;28;20055;-74
2021/09/09 07:31:17;;;;;;;21.98;11.43;;;;;;;;;;4954451;28;20023;-74
2021/09/09 07:33:42;;;;;;;16.05;9.45;;;;;;;;;;4963866;28;20058;-75
2021/09/09 07:36:08;;;;;;;21.83;12.75;;;;;;;;;;4966898;28;20038;-74
2021/09/09 07:38:34;;;;;;;23.52;9.98;;;;;;;;;;4948794;28;20441;-73
2021/09/09 07:41:01;;;;;;;22.70;11.32;;;;;;;;;;4957941;28;20397;-73
2021/09/09 07:43:26;;;;;;;32.30;12.23;;;;;;;;;;4968383;28;20043;-73
2021/09/09 07:45:52;;;;;;;26.33;11.85;;;;;;;;;;4969199;28;20069;-73
2021/09/09 07:48:18;;;;;;;21.95;11.43;;;;;;;;;;4965734;28;20030;-74
2021/09/09 07:50:46;;;;;;;29.85;11.23;;;;;;;;;;4948153;29;20031;-73
2021/09/09 07:53:12;;;;;;;24.67;12.02;;;;;;;;;;4965381;28;20049;-74
2021/09/09 07:55:37;;;;;;;31.95;13.02;;;;;;;;;;4961275;28;20031;-76
2021/09/09 07:58:03;;;;;;;27.20;14.57;;;;;;;;;;4948995;28;20035;-74
2021/09/09 08:00:28;;;;;;;29.80;13.57;;;;;;;;;;4951249;28;20054;-73
2021/09/09 08:02:54;;;;;;;28.45;10.95;;;;;;;;;;4969999;28;20395;-73
2021/09/09 08:05:19;;;;;;;26.70;11.88;;;;;;;;;;4971572;28;20023;-73
2021/09/09 08:07:46;;;;;;;27.92;11.98;;;;;;;;;;4932106;29;20106;-74
2021/09/09 08:10:15;;;;;;;25.55;11.18;;;;;;;;;;4959807;28;20038;-74
2021/09/09 08:12:42;;;;;;;24.80;10.50;;;;;;;;;;4972991;28;20506;-74
2021/09/09 08:15:08;;;;;;;22.73;10.07;;;;;;;;;;4968511;28;20038;-74
2021/09/09 08:17:33;;;;;;;22.88;10.25;;;;;;;;;;4962453;28;20019;-73
2021/09/09 08:20:00;;;;;;;26.85;11.48;;;;;;;;;;4945253;28;20023;-73
2021/09/09 08:22:26;;;;;;;23.17;9.38;;;;;;;;;;4967038;28;20110;-74
2021/09/09 08:24:53;;;;;;;18.67;9.63;;;;;;;;;;4947879;29;20052;-74
2021/09/09 08:27:19;;;;;;;27.23;12.25;;;;;;;;;;4951997;28;20038;-72
2021/09/09 08:29:44;;;;;;;27.65;11.63;;;;;;;;;;4967702;28;20122;-74
2021/09/09 08:32:10;;;;;;;25.45;11.55;;;;;;;;;;4964933;28;20031;-73
2021/09/09 08:34:36;;;;;;;24.08;9.98;;;;;;;;;;4941717;28;20051;-75
2021/09/09 08:37:01;;;;;;;22.98;9.75;;;;;;;;;;4948987;28;20031;-75
2021/09/09 08:39:27;;;;;;;23.35;9.32;;;;;;;;;;4969119;28;20106;-74
2021/09/09 08:41:54;;;;;;;28.58;10.38;;;;;;;;;;4963763;28;20027;-73
2021/09/09 08:44:21;;;;;;;16.05;7.85;;;;;;;;;;4967706;28;20086;-72
2021/09/09 08:46:46;;;;;;;27.65;8.55;;;;;;;;;;4968417;28;20046;-75
2021/09/09 08:49:12;;;;;;;17.48;8.07;;;;;;;;;;4964578;28;20039;-73
2021/09/09 08:51:38;;;;;;;19.90;8.55;;;;;;;;;;4948137;29;20062;-73
2021/09/09 08:54:04;;;;;;;87.43;44.25;;;;;;;;;;4937225;29;20731;-73
2021/09/09 08:56:31;;;;;;;20.55;9.43;;;;;;;;;;4963320;28;20038;-74
2021/09/09 08:58:57;;;;;;;15.88;7.82;;;;;;;;;;4971623;28;20031;-74
2021/09/09 09:01:22;;;;;;;20.75;8.98;;;;;;;;;;4938512;28;20109;-73
2021/09/09 09:03:54;;;;;;;16.85;7.82;;;;;;;;;;4954698;28;20031;-74
2021/09/09 09:06:22;;;;;;;18.60;8.25;;;;;;;;;;4967984;28;20042;-74
2021/09/09 09:08:49;;;;;;;16.90;8.40;;;;;;;;;;4971015;28;20038;-74
2021/09/09 09:11:21;;;;;;;21.38;8.45;;;;;;;;;;4972404;28;20494;-73
2021/09/09 09:13:47;;;;;;;27.45;8.75;;;;;;;;;;4950364;28;20126;-73
2021/09/09 09:16:17;;;;;;;13.75;6.75;;;;;;;;;;4973095;28;20826;-73
2021/09/09 09:18:44;;;;;;;18.70;8.50;;;;;;;;;;4949019;29;20054;-74
2021/09/09 09:21:11;;;;;;;26.50;6.93;;;;;;;;;;4960322;28;20023;-73
2021/09/09 09:23:38;;;;;;;20.40;8.27;;;;;;;;;;4945253;28;20035;-73
2021/09/09 09:26:05;;;;;;;19.52;8.30;;;;;;;;;;4960806;28;20139;-72
2021/09/09 09:28:45;;;;;;;20.70;8.07;;;;;;;;;;4964086;28;20084;-73
2021/09/09 09:31:14;;;;;;;20.63;7.47;;;;;;;;;;4941839;28;20050;-75
2021/09/09 09:33:50;;;;;;;16.02;7.22;;;;;;;;;;4966351;28;20031;-74
2021/09/09 09:36:17;;;;;;;18.40;7.32;;;;;;;;;;4949867;28;20051;-73
2021/09/09 09:38:44;;;;;;;26.48;8.18;;;;;;;;;;4951006;28;20062;-74
2021/09/09 09:41:10;;;;;;;18.25;6.85;;;;;;;;;;4953529;28;20365;-73
2021/09/09 09:43:36;;;;;;;12.82;6.53;;;;;;;;;;4945995;28;20039;-75
2021/09/09 09:46:04;;;;;;;39.60;8.88;;;;;;;;;;4961443;28;20039;-74
2021/09/09 09:48:33;;;;;;;22.90;8.20;;;;;;;;;;4948349;28;20047;-75
2021/09/09 09:51:01;;;;;;;21.08;6.65;;;;;;;;;;4966231;28;20423;-73
2021/09/09 09:53:27;;;;;;;15.25;6.72;;;;;;;;;;4973514;28;20039;-73
2021/09/09 09:55:52;;;;;;;13.55;6.60;;;;;;;;;;4950784;28;20038;-75
2021/09/09 09:58:18;;;;;;;15.55;7.00;;;;;;;;;;4949151;28;20041;-73
2021/09/09 10:00:45;;;;;;;12.20;6.03;;;;;;;;;;4966980;28;20118;-74
2021/09/09 10:03:15;;;;;;;14.40;6.28;;;;;;;;;;4948437;28;20106;-73
2021/09/09 10:05:42;;;;;;;12.40;6.03;;;;;;;;;;4946687;29;20585;-74
2021/09/09 10:08:08;;;;;;;17.98;6.75;;;;;;;;;;4962756;28;20113;-73
2021/09/09 10:10:34;;;;;;;13.20;6.55;;;;;;;;;;4965627;28;20031;-74
2021/09/09 10:13:01;;;;;;;17.33;6.70;;;;;;;;;;4931033;29;20468;-74
2021/09/09 10:15:27;;;;;;;12.10;6.05;;;;;;;;;;4967233;28;20030;-74
2021/09/09 10:17:54;;;;;;;23.20;6.68;;;;;;;;;;4952913;28;20423;-74
2021/09/09 10:20:25;;;;;;;18.83;7.18;;;;;;;;;;4972452;28;20034;-73
2021/09/09 10:23:04;;;;;;;;;;;;;;;;;;4959242;28;20035;-74
2021/09/09 10:25:54;;;;;;;17.83;6.90;;;;;;;;;;4966052;28;19918;-73
2021/09/09 10:28:37;;;;;;;10.98;5.82;;;;;;;;;;4955766;28;20034;-73
2021/09/09 10:31:35;;;;;;;14.82;6.55;;;;;;;;;;4969763;28;20105;-73
2021/09/09 10:34:07;;;;;;;10.63;5.53;;;;;;;;;;4957441;28;20023;-73
2021/09/09 10:36:40;;;;;;;13.05;5.75;;;;;;;;;;4977894;28;20118;-73
2021/09/09 10:39:41;;;;;;;13.93;6.03;;;;;;;;;;4950519;28;20035;-73
2021/09/09 10:42:35;;;;;;;11.80;6.32;;;;;;;;;;4972451;28;20037;-75
2021/09/09 10:45:01;;;;;;;19.88;6.43;;;;;;;;;;4954974;28;20479;-74
2021/09/09 10:47:28;;;;;;;11.35;5.63;;;;;;;;;;4959695;28;20031;-75
2021/09/09 10:50:03;;;;;;;13.82;6.05;;;;;;;;;;4965852;28;20023;-76
2021/09/09 10:52:28;;;;;;;10.43;5.43;;;;;;;;;;4953526;28;20031;-74
2021/09/09 10:55:10;;;;;;;11.38;5.28;;;;;;;;;;4970969;28;20015;-74
2021/09/09 10:57:36;;;;;;;11.13;6.38;;;;;;;;;;4957727;28;20221;-74
2021/09/09 11:00:05;;;;;;;11.75;6.30;;;;;;;;;;4962771;28;20026;-74
2021/09/09 11:02:32;;;;;;;14.73;6.20;;;;;;;;;;4973617;28;20068;-75
2021/09/09 11:05:04;;;;;;;13.50;6.13;;;;;;;;;;4972840;28;20063;-74
2021/09/09 11:07:31;;;;;;;11.55;5.60;;;;;;;;;;4972567;28;20034;-75
2021/09/09 11:10:06;;;;;;;27.27;9.15;;;;;;;;;;4959498;28;20045;-74
2021/09/09 11:12:43;;;;;;;15.10;6.00;;;;;;;;;;4954048;28;20479;-73
2021/09/09 11:15:11;;;;;;;10.60;6.43;;;;;;;;;;4973858;28;20547;-74
2021/09/09 11:17:38;;;;;;;14.95;5.85;;;;;;;;;;4954406;28;20033;-73
2021/09/09 11:20:10;;;;;;;15.55;5.70;;;;;;;;;;4968078;28;20118;-73
2021/09/09 11:22:36;;;;;;;11.88;6.20;;;;;;;;;;4967366;28;20333;-73
2021/09/09 11:25:03;;;;;;;13.30;7.18;;;;;;;;;;4947238;28;20143;-74
2021/09/09 11:27:35;;;;;;;14.13;6.18;;;;;;;;;;4966803;28;20031;-73
2021/09/09 11:30:02;;;;;;;13.55;6.13;;;;;;;;;;4966352;28;20043;-74
2021/09/09 11:32:30;;;;;;;19.65;6.70;;;;;;;;;;4951145;28;20490;-73
2021/09/09 11:35:08;;;;;;;12.80;6.85;;;;;;;;;;4951514;28;20041;-75
2021/09/09 11:37:47;;;;;;;16.02;6.47;;;;;;;;;;4953526;28;20440;-74
2021/09/09 11:40:17;;;;;;;17.63;6.68;;;;;;;;;;4961041;28;20379;-73
2021/09/09 11:42:43;;;;;;;14.80;6.53;;;;;;;;;;4952090;28;20031;-73
2021/09/09 11:45:09;;;;;;;11.40;6.63;;;;;;;;;;4975731;28;20521;-73
2021/09/09 11:47:34;;;;;;;15.85;6.70;;;;;;;;;;4949551;28;20053;-73
2021/09/09 11:50:05;;;;;;;17.00;5.90;;;;;;;;;;4970447;28;20077;-73
2021/09/09 11:52:31;;;;;;;42.00;19.45;;;;;;;;;;4960451;28;20823;-73
2021/09/09 11:54:57;;;;;;;11.02;6.45;;;;;;;;;;4930045;29;20456;-74
2021/09/09 11:57:24;;;;;;;14.23;6.15;;;;;;;;;;4967479;28;20038;-73
2021/09/09 11:59:55;;;;;;;13.15;6.32;;;;;;;;;;4953178;28;20035;-72
2021/09/09 12:02:23;;;;;;;14.82;6.97;;;;;;;;;;4962544;28;20105;-73
2021/09/09 12:04:50;;;;;;;10.95;5.50;;;;;;;;;;4972115;28;20034;-73
2021/09/09 12:07:22;;;;;;;15.23;6.03;;;;;;;;;;4968311;28;20026;-73
2021/09/09 12:09:53;;;;;;;;;;;;;;;;;;4971160;28;20038;-74
2021/09/09 12:12:19;;;;;;;12.45;6.50;;;;;;;;;;4969397;28;19945;-75
2021/09/09 12:14:44;;;;;;;12.10;7.00;;;;;;;;;;4971702;28;20066;-74
2021/09/09 12:17:14;;;;;;;12.07;6.53;;;;;;;;;;4943464;28;20468;-74
2021/09/09 12:20:34;;;;;;;12.97;6.20;;;;;;;;;;4969638;28;20042;-74
2021/09/09 12:23:01;;;;;;;14.35;7.22;;;;;;;;;;4904770;29;20144;-74
2021/09/09 12:25:27;;;;;;;14.98;6.00;;;;;;;;;;4901325;29;20036;-75
2021/09/09 12:28:16;;;;;;;14.90;7.07;;;;;;;;;;4932172;28;20073;-74
2021/09/09 12:30:46;;;;;;;17.77;6.45;;;;;;;;;;4975900;28;20387;-74
2021/09/09 12:33:34;;;;;;;12.00;5.95;;;;;;;;;;4948212;28;20031;-73
2021/09/09 12:36:07;;;;;;;14.20;7.72;;;;;;;;;;4969971;28;20514;-73
2021/09/09 12:38:42;;;;;;;12.35;6.07;;;;;;;;;;4959199;28;20031;-73
2021/09/09 12:41:16;;;;;;;12.63;5.70;;;;;;;;;;4962513;28;20027;-73
2021/09/09 12:43:52;;;;;;;15.95;6.53;;;;;;;;;;4946635;28;20035;-72
2021/09/09 12:46:28;;;;;;;14.02;7.20;;;;;;;;;;4963793;28;20023;-75
2021/09/09 12:49:13;;;;;;;19.02;6.72;;;;;;;;;;4967518;28;20035;-75
2021/09/09 12:52:07;;;;;;;15.20;6.35;;;;;;;;;;4954763;28;20134;-74
2021/09/09 12:54:38;;;;;;;21.95;8.85;;;;;;;;;;4967340;28;20539;-74
2021/09/09 12:57:06;;;;;;;14.85;6.43;;;;;;;;;;4966254;28;20037;-74
2021/09/09 12:59:32;;;;;;;11.95;5.97;;;;;;;;;;4927827;28;20063;-73
2021/09/09 13:01:58;;;;;;;13.95;6.65;;;;;;;;;;4942616;28;20031;-74
2021/09/09 13:04:25;;;;;;;14.98;6.35;;;;;;;;;;4943478;28;20023;-76
2021/09/09 13:06:51;;;;;;;12.70;5.93;;;;;;;;;;4963948;28;20039;-75
2021/09/09 13:09:16;;;;;;;12.23;6.50;;;;;;;;;;4962712;28;20043;-74
2021/09/09 13:11:43;;;;;;;21.25;7.00;;;;;;;;;;4953877;28;20046;-73
2021/09/09 13:14:09;;;;;;;18.88;6.40;;;;;;;;;;4939468;28;20031;-74
2021/09/09 13:16:35;;;;;;;9.80;5.65;;;;;;;;;;4953296;28;20356;-73
2021/09/09 13:19:02;;;;;;;10.40;5.50;;;;;;;;;;4967058;28;20706;-73
2021/09/09 13:21:30;;;;;;;10.82;6.57;;;;;;;;;;4964083;28;20384;-72
2021/09/09 13:23:59;;;;;;;11.32;6.00;;;;;;;;;;4930450;29;20035;-73
2021/09/09 13:26:25;;;;;;;12.60;5.85;;;;;;;;;;4946677;28;20173;-76
2021/09/09 13:28:54;;;;;;;12.35;6.25;;;;;;;;;;4945733;28;20059;-73
2021/09/09 13:31:22;;;;;;;12.35;6.50;;;;;;;;;;4944168;28;20023;-73
2021/09/09 13:33:49;;;;;;;13.90;6.03;;;;;;;;;;4961057;28;20049;-74
2021/09/09 13:36:16;;;;;;;11.73;7.13;;;;;;;;;;4949904;28;20423;-74
2021/09/09 13:38:42;;;;;;;12.13;6.95;;;;;;;;;;4967110;28;20038;-74
2021/09/09 13:41:09;;;;;;;14.52;10.73;;;;;;;;;;4948052;28;20042;-75
2021/09/09 13:43:35;;;;;;;13.63;7.35;;;;;;;;;;4947695;28;20035;-73
2021/09/09 13:46:01;;;;;;;12.48;6.10;;;;;;;;;;4949804;28;21943;-74
2021/09/09 13:48:27;;;;;;;13.48;6.63;;;;;;;;;;4968277;28;20034;-72
2021/09/09 13:50:53;;;;;;;14.25;6.72;;;;;;;;;;4967228;28;20371;-73
2021/09/09 13:53:18;;;;;;;15.20;7.68;;;;;;;;;;4957449;28;20538;-73
2021/09/09 13:55:44;;;;;;;13.15;6.80;;;;;;;;;;4970368;28;20026;-73
2021/09/09 13:58:10;;;;;;;17.77;6.90;;;;;;;;;;4963042;28;20026;-74
2021/09/09 14:00:38;;;;;;;15.20;6.88;;;;;;;;;;4957567;28;20102;-72
2021/09/09 14:03:04;;;;;;;12.27;5.95;;;;;;;;;;4957685;28;20026;-72
2021/09/09 14:05:31;;;;;;;33.10;11.00;;;;;;;;;;4968909;28;20113;-72
2021/09/09 14:07:57;;;;;;;12.57;6.75;;;;;;;;;;4969206;28;20022;-73
2021/09/09 14:10:22;;;;;;;10.30;6.93;;;;;;;;;;4972023;28;20030;-72
2021/09/09 14:12:48;;;;;;;11.65;6.25;;;;;;;;;;4974715;28;20034;-73
2021/09/09 14:15:15;;;;;;;12.38;6.10;;;;;;;;;;4947937;28;20130;-74
2021/09/09 14:17:43;;;;;;;13.30;6.10;;;;;;;;;;4966397;28;20137;-72
2021/09/09 14:20:10;;;;;;;23.20;6.63;;;;;;;;;;4958909;28;20370;-73
2021/09/09 14:22:37;;;;;;;10.13;5.47;;;;;;;;;;4943200;29;20130;-73
2021/09/09 14:25:05;;;;;;;14.40;6.63;;;;;;;;;;4947299;28;20026;-73